Time;durP1;ratioP1;P1;durP2;ratioP2;P2;SDS_P1;SDS_P2;PMS_P1;PMS_P2;Temp;Humidity;BMP_temperature;BMP_pressure;BME280_temperature;BME280_humidity;BME280_pressure;Samples;Min_cycle;Max_cycle;Signal;HPM_P1;HPM_P2
2021/12/18 00:01:29;;;;;;;54.03;20.23;;;;;;;;;;5012819;28;20036;-60
2021/12/18 00:03:55;;;;;;;53.95;19.38;;;;;;;;;;5015452;28;20145;-60
2021/12/18 00:06:21;;;;;;;49.95;20.02;;;;;;;;;;5013331;28;20072;-60
2021/12/18 00:08:47;;;;;;;47.78;20.33;;;;;;;;;;5013807;28;20025;-60
2021/12/18 00:11:13;;;;;;;45.03;19.95;;;;;;;;;;5020181;28;20086;-61
2021/12/18 00:13:39;;;;;;;54.53;20.17;;;;;;;;;;5015886;28;20370;-60
2021/12/18 00:16:05;;;;;;;51.38;21.15;;;;;;;;;;5020738;28;20042;-61
2021/12/18 00:18:31;;;;;;;54.85;20.30;;;;;;;;;;5015898;28;20030;-61
2021/12/18 00:21:01;;;;;;;48.63;19.13;;;;;;;;;;5019931;28;20045;-61
2021/12/18 00:23:26;;;;;;;48.70;19.48;;;;;;;;;;5019280;28;20264;-60
2021/12/18 00:25:52;;;;;;;45.67;20.35;;;;;;;;;;5015353;28;20040;-60
2021/12/18 00:28:18;;;;;;;58.53;19.90;;;;;;;;;;5014919;28;20075;-60
2021/12/18 00:30:43;;;;;;;54.63;20.73;;;;;;;;;;5013486;28;20036;-60
2021/12/18 00:33:10;;;;;;;45.67;19.33;;;;;;;;;;5017500;28;20334;-60
2021/12/18 00:35:35;;;;;;;55.10;19.92;;;;;;;;;;5015378;28;20108;-60
2021/12/18 00:38:03;;;;;;;48.63;20.38;;;;;;;;;;5012985;28;20385;-59
2021/12/18 00:40:42;;;;;;;50.03;19.85;;;;;;;;;;5011365;28;20100;-59
2021/12/18 00:43:22;;;;;;;53.03;20.42;;;;;;;;;;5011514;28;20870;-60
2021/12/18 00:45:48;;;;;;;44.78;19.08;;;;;;;;;;5015815;28;20064;-60
2021/12/18 00:48:13;;;;;;;51.17;20.27;;;;;;;;;;5012064;28;20026;-60
2021/12/18 00:50:39;;;;;;;48.13;20.02;;;;;;;;;;5015495;28;20040;-60
2021/12/18 00:53:04;;;;;;;56.40;21.13;;;;;;;;;;5012098;28;20071;-60
2021/12/18 00:55:30;;;;;;;46.78;19.80;;;;;;;;;;5012560;28;20033;-60
2021/12/18 00:57:55;;;;;;;54.08;19.42;;;;;;;;;;5014781;28;20518;-60
2021/12/18 01:00:24;;;;;;;47.75;21.30;;;;;;;;;;5023273;28;20059;-60
2021/12/18 01:02:58;;;;;;;49.45;21.13;;;;;;;;;;5037395;28;20057;-59
2021/12/18 01:05:25;;;;;;;50.50;19.58;;;;;;;;;;5029818;28;20133;-61
2021/12/18 01:07:54;;;;;;;48.83;20.60;;;;;;;;;;5035018;28;20603;-61
2021/12/18 01:12:54;;;;;;;55.92;20.00;;;;;;;;;;5035990;28;20071;-60
2021/12/18 01:23:22;;;;;;;50.20;18.80;;;;;;;;;;5039586;28;20047;-59
2021/12/18 01:25:48;;;;;;;47.53;18.95;;;;;;;;;;5032800;28;20091;-60
2021/12/18 01:28:14;;;;;;;51.42;18.98;;;;;;;;;;5033558;28;20021;-60
2021/12/18 01:30:39;;;;;;;47.65;19.38;;;;;;;;;;5031640;28;20086;-60
2021/12/18 01:33:05;;;;;;;50.35;19.88;;;;;;;;;;5034265;28;20457;-61
2021/12/18 01:35:31;;;;;;;50.63;19.50;;;;;;;;;;5035777;28;20116;-62
2021/12/18 01:37:57;;;;;;;49.58;20.13;;;;;;;;;;5036892;28;20029;-61
2021/12/18 01:40:24;;;;;;;54.97;20.73;;;;;;;;;;5028689;28;20057;-61
2021/12/18 01:53:28;;;;;;;56.95;20.67;;;;;;;;;;5035071;28;20040;-60
2021/12/18 01:55:54;;;;;;;53.17;20.38;;;;;;;;;;5037568;28;20029;-61
2021/12/18 01:58:23;;;;;;;53.25;19.02;;;;;;;;;;5030168;28;20029;-60
2021/12/18 02:00:50;;;;;;;52.55;19.45;;;;;;;;;;5034190;28;20061;-60
2021/12/18 02:03:16;;;;;;;61.10;21.38;;;;;;;;;;5035675;28;20067;-60
2021/12/18 02:05:41;;;;;;;51.75;20.48;;;;;;;;;;5036624;28;20021;-60
2021/12/18 02:08:07;;;;;;;60.95;22.48;;;;;;;;;;5029314;28;20033;-61
2021/12/18 02:10:45;;;;;;;56.97;21.50;;;;;;;;;;5039674;28;20558;-60
2021/12/18 02:13:39;;;;;;;54.60;20.42;;;;;;;;;;5032948;28;20246;-60
2021/12/18 02:21:29;;;;;;;53.10;19.25;;;;;;;;;;5036386;28;20053;-60
2021/12/18 02:23:56;;;;;;;57.17;21.05;;;;;;;;;;5034420;28;20052;-60
2021/12/18 02:26:23;;;;;;;55.83;21.05;;;;;;;;;;5034952;28;20028;-60
2021/12/18 02:28:51;;;;;;;54.10;20.73;;;;;;;;;;5031590;28;20044;-60
2021/12/18 02:31:16;;;;;;;55.05;19.92;;;;;;;;;;5034889;28;20064;-60
2021/12/18 02:33:43;;;;;;;54.10;20.75;;;;;;;;;;5036465;28;20052;-61
2021/12/18 02:36:10;;;;;;;71.65;21.80;;;;;;;;;;5043310;28;20032;-60
2021/12/18 02:44:02;;;;;;;63.15;22.30;;;;;;;;;;5035498;28;20035;-60
2021/12/18 02:46:28;;;;;;;60.15;22.33;;;;;;;;;;5034564;28;20016;-60
2021/12/18 02:48:55;;;;;;;64.70;24.00;;;;;;;;;;5033426;28;20041;-61
2021/12/18 02:51:21;;;;;;;64.93;23.95;;;;;;;;;;5038497;28;20488;-61
2021/12/18 02:53:53;;;;;;;71.75;24.85;;;;;;;;;;5036631;28;20040;-61
2021/12/18 02:56:23;;;;;;;;;;;;;;;;;;5038094;28;20099;-61
2021/12/18 02:58:51;;;;;;;65.15;21.70;;;;;;;;;;5033133;28;19924;-61
2021/12/18 03:01:20;;;;;;;71.65;23.88;;;;;;;;;;5036988;28;20039;-61
2021/12/18 03:03:47;;;;;;;62.08;23.00;;;;;;;;;;5040876;28;20045;-61
2021/12/18 03:25:03;;;;;;;65.38;23.20;;;;;;;;;;5020326;28;20142;-60
2021/12/18 03:27:30;;;;;;;61.90;21.45;;;;;;;;;;5034451;28;20025;-60
2021/12/18 03:29:56;;;;;;;74.05;23.13;;;;;;;;;;5035060;28;20033;-60
2021/12/18 03:32:23;;;;;;;73.63;23.52;;;;;;;;;;5034312;28;20087;-61
2021/12/18 03:34:51;;;;;;;62.70;21.85;;;;;;;;;;5031996;28;20021;-61
2021/12/18 03:37:18;;;;;;;63.88;23.35;;;;;;;;;;5035668;28;20038;-61
2021/12/18 03:39:44;;;;;;;64.25;21.73;;;;;;;;;;5037855;28;20487;-61
2021/12/18 03:42:09;;;;;;;62.97;22.58;;;;;;;;;;5033001;28;20156;-61
2021/12/18 03:44:35;;;;;;;65.68;21.38;;;;;;;;;;5035227;28;20131;-60
2021/12/18 03:47:01;;;;;;;71.22;23.08;;;;;;;;;;5033893;28;20040;-59
2021/12/18 03:49:27;;;;;;;58.42;20.55;;;;;;;;;;5034137;28;20032;-60
2021/12/18 03:51:52;;;;;;;58.72;21.70;;;;;;;;;;5031395;28;20032;-60
2021/12/18 03:54:18;;;;;;;62.78;22.75;;;;;;;;;;5036666;28;20033;-60
2021/12/18 03:56:44;;;;;;;58.17;22.60;;;;;;;;;;5034323;28;20310;-60
2021/12/18 03:59:09;;;;;;;67.63;23.13;;;;;;;;;;5037376;28;20036;-60
2021/12/18 04:01:35;;;;;;;69.00;21.92;;;;;;;;;;5037249;28;20044;-60
2021/12/18 04:04:01;;;;;;;57.80;21.25;;;;;;;;;;5036591;28;20076;-60
2021/12/18 04:06:27;;;;;;;69.40;21.70;;;;;;;;;;5036261;28;20342;-60
2021/12/18 04:08:52;;;;;;;66.80;20.45;;;;;;;;;;5033575;28;20238;-60
2021/12/18 04:11:19;;;;;;;65.72;21.35;;;;;;;;;;5032432;28;20647;-60
2021/12/18 04:13:46;;;;;;;65.60;22.10;;;;;;;;;;5035455;28;20335;-60
2021/12/18 04:16:12;;;;;;;62.95;19.17;;;;;;;;;;5033261;28;20044;-60
2021/12/18 04:18:38;;;;;;;61.35;21.58;;;;;;;;;;5033467;28;20073;-60
2021/12/18 04:21:04;;;;;;;62.85;21.63;;;;;;;;;;5032975;28;20576;-60
2021/12/18 04:23:29;;;;;;;56.63;19.42;;;;;;;;;;5037141;28;20510;-60
2021/12/18 04:25:56;;;;;;;57.28;20.55;;;;;;;;;;5037522;28;20553;-61
2021/12/18 04:28:22;;;;;;;61.20;20.10;;;;;;;;;;5029789;28;20295;-61
2021/12/18 04:30:49;;;;;;;63.65;20.73;;;;;;;;;;5039333;28;20021;-60
2021/12/18 04:33:14;;;;;;;60.97;20.63;;;;;;;;;;5030624;28;20437;-61
2021/12/18 04:35:40;;;;;;;63.10;21.38;;;;;;;;;;5032374;28;20033;-61
2021/12/18 04:38:05;;;;;;;59.78;19.45;;;;;;;;;;5031546;28;20034;-61
2021/12/18 04:40:31;;;;;;;64.03;20.25;;;;;;;;;;5034992;28;20200;-60
2021/12/18 04:42:57;;;;;;;61.35;21.17;;;;;;;;;;5030285;28;20032;-60
2021/12/18 04:45:23;;;;;;;74.20;20.13;;;;;;;;;;5033533;28;20037;-61
2021/12/18 04:47:49;;;;;;;62.30;21.67;;;;;;;;;;5033405;28;20028;-61
2021/12/18 04:50:15;;;;;;;61.40;19.75;;;;;;;;;;5032798;28;20072;-61
2021/12/18 04:52:40;;;;;;;54.45;19.98;;;;;;;;;;5034559;28;20109;-61
2021/12/18 04:55:06;;;;;;;60.67;19.52;;;;;;;;;;5034968;28;20069;-61
2021/12/18 04:57:32;;;;;;;65.00;21.15;;;;;;;;;;5033104;28;20029;-61
2021/12/18 04:59:59;;;;;;;59.50;21.02;;;;;;;;;;5032471;28;20029;-61
2021/12/18 05:02:37;;;;;;;65.78;21.60;;;;;;;;;;5031387;28;20046;-61
2021/12/18 05:05:04;;;;;;;60.45;19.50;;;;;;;;;;5033249;28;20049;-61
2021/12/18 05:07:29;;;;;;;60.53;21.60;;;;;;;;;;5030315;28;20153;-60
2021/12/18 05:09:55;;;;;;;59.47;20.42;;;;;;;;;;5033961;28;20136;-61
2021/12/18 05:12:20;;;;;;;61.65;20.77;;;;;;;;;;5033950;28;20030;-61
2021/12/18 05:14:46;;;;;;;62.80;21.33;;;;;;;;;;5030817;28;20057;-61
2021/12/18 05:17:11;;;;;;;63.78;21.10;;;;;;;;;;5028545;28;20326;-61
2021/12/18 05:19:37;;;;;;;59.85;22.20;;;;;;;;;;5032309;28;20045;-61
2021/12/18 05:22:04;;;;;;;62.22;21.05;;;;;;;;;;5032272;28;20029;-61
2021/12/18 05:24:30;;;;;;;66.93;22.17;;;;;;;;;;5032401;28;20503;-60
2021/12/18 05:26:56;;;;;;;74.07;22.92;;;;;;;;;;5031921;28;20075;-61
2021/12/18 05:29:21;;;;;;;63.30;19.92;;;;;;;;;;5035969;28;20040;-61
2021/12/18 05:31:47;;;;;;;66.50;22.52;;;;;;;;;;5032955;28;20044;-60
2021/12/18 05:34:20;;;;;;;69.15;21.80;;;;;;;;;;5036464;28;20063;-61
2021/12/18 05:39:23;;;;;;;65.55;21.85;;;;;;;;;;5034093;28;20270;-61
2021/12/18 05:41:50;;;;;;;57.63;21.90;;;;;;;;;;5033875;28;20028;-61
2021/12/18 05:44:17;;;;;;;57.55;21.08;;;;;;;;;;5033239;28;20091;-60
2021/12/18 05:46:43;;;;;;;66.85;21.90;;;;;;;;;;5033671;28;20028;-60
2021/12/18 05:49:08;;;;;;;65.22;22.63;;;;;;;;;;5030915;28;20112;-60
2021/12/18 05:51:34;;;;;;;79.60;23.67;;;;;;;;;;5036978;28;20128;-61
2021/12/18 05:54:00;;;;;;;62.70;22.95;;;;;;;;;;5038598;28;20087;-61
2021/12/18 05:56:25;;;;;;;67.60;22.05;;;;;;;;;;5037286;28;20051;-60
2021/12/18 05:58:51;;;;;;;69.50;23.80;;;;;;;;;;5040140;28;20044;-61
2021/12/18 06:01:18;;;;;;;64.25;22.65;;;;;;;;;;5040770;28;20033;-61
2021/12/18 06:03:45;;;;;;;75.30;23.58;;;;;;;;;;5032190;28;20055;-61
2021/12/18 06:06:11;;;;;;;78.15;25.00;;;;;;;;;;5032689;28;20060;-59
2021/12/18 06:08:38;;;;;;;74.05;24.73;;;;;;;;;;5038360;28;20041;-59
2021/12/18 06:11:10;;;;;;;65.28;23.50;;;;;;;;;;5037921;28;20073;-59
2021/12/18 06:13:35;;;;;;;69.68;24.40;;;;;;;;;;5039699;28;20029;-59
2021/12/18 06:16:01;;;;;;;82.45;25.30;;;;;;;;;;5039301;28;20110;-59
2021/12/18 06:18:27;;;;;;;81.57;26.48;;;;;;;;;;5036653;28;20043;-59
2021/12/18 06:20:52;;;;;;;90.05;27.20;;;;;;;;;;5042221;28;20029;-59
2021/12/18 06:23:18;;;;;;;90.93;25.85;;;;;;;;;;5038482;28;20040;-59
2021/12/18 06:25:44;;;;;;;80.13;26.75;;;;;;;;;;5038354;28;20036;-61
2021/12/18 06:28:10;;;;;;;98.88;26.95;;;;;;;;;;5042891;28;20033;-60
2021/12/18 06:30:35;;;;;;;107.38;30.02;;;;;;;;;;5041449;28;20550;-59
2021/12/18 06:33:01;;;;;;;85.85;26.80;;;;;;;;;;5034718;28;20029;-59
2021/12/18 06:35:26;;;;;;;97.10;28.77;;;;;;;;;;5040338;28;20430;-59
2021/12/18 06:37:52;;;;;;;98.05;27.67;;;;;;;;;;5036112;28;20037;-59
2021/12/18 06:40:18;;;;;;;92.85;28.00;;;;;;;;;;5043208;28;20396;-59
2021/12/18 06:42:43;;;;;;;81.72;27.58;;;;;;;;;;5036643;28;20060;-59
2021/12/18 06:45:10;;;;;;;94.85;29.00;;;;;;;;;;5035561;28;20045;-60
2021/12/18 06:47:36;;;;;;;95.70;27.20;;;;;;;;;;5037205;28;20548;-59
2021/12/18 06:50:03;;;;;;;89.68;28.25;;;;;;;;;;5034841;28;20026;-60
2021/12/18 06:52:29;;;;;;;94.05;26.58;;;;;;;;;;5035197;28;20063;-60
2021/12/18 06:54:56;;;;;;;107.90;32.13;;;;;;;;;;5037253;28;20052;-60
2021/12/18 06:57:22;;;;;;;123.97;31.33;;;;;;;;;;5038077;28;20029;-59
2021/12/18 06:59:49;;;;;;;112.13;30.63;;;;;;;;;;5035364;28;20082;-60
2021/12/18 07:02:15;;;;;;;110.45;31.67;;;;;;;;;;5036946;28;20321;-59
2021/12/18 07:04:41;;;;;;;126.03;33.25;;;;;;;;;;5040584;28;20047;-60
2021/12/18 07:07:06;;;;;;;126.10;31.75;;;;;;;;;;5035407;28;20045;-60
2021/12/18 07:09:31;;;;;;;108.80;31.15;;;;;;;;;;5033731;28;20025;-60
2021/12/18 07:11:57;;;;;;;120.22;34.60;;;;;;;;;;5036472;28;20056;-60
2021/12/18 07:14:22;;;;;;;114.80;31.63;;;;;;;;;;5035505;28;20187;-60
2021/12/18 07:16:48;;;;;;;106.30;30.55;;;;;;;;;;5037864;28;20083;-60
2021/12/18 07:19:13;;;;;;;123.53;33.13;;;;;;;;;;5036716;28;20048;-60
2021/12/18 07:21:39;;;;;;;130.35;32.83;;;;;;;;;;5032961;28;20029;-60
2021/12/18 07:24:05;;;;;;;113.68;30.88;;;;;;;;;;5038769;28;20044;-60
2021/12/18 07:26:32;;;;;;;113.07;31.95;;;;;;;;;;5036201;28;20037;-60
2021/12/18 07:28:58;;;;;;;108.65;31.80;;;;;;;;;;5036298;28;20053;-60
2021/12/18 07:31:24;;;;;;;120.07;31.67;;;;;;;;;;5032814;28;20480;-60
2021/12/18 07:33:50;;;;;;;118.88;32.25;;;;;;;;;;5029866;28;20033;-60
2021/12/18 07:36:15;;;;;;;107.75;31.63;;;;;;;;;;5033439;28;20033;-60
2021/12/18 07:38:41;;;;;;;99.82;30.58;;;;;;;;;;5034913;28;20037;-60
2021/12/18 07:41:06;;;;;;;102.60;30.80;;;;;;;;;;5029537;28;20401;-60
2021/12/18 07:43:32;;;;;;;94.28;30.10;;;;;;;;;;5036554;28;20154;-60
2021/12/18 07:45:57;;;;;;;100.80;30.88;;;;;;;;;;5033574;28;20095;-60
2021/12/18 07:48:23;;;;;;;118.28;31.75;;;;;;;;;;5032777;28;20104;-60
2021/12/18 07:50:49;;;;;;;95.20;30.27;;;;;;;;;;5042864;28;20420;-60
2021/12/18 07:53:15;;;;;;;96.13;31.88;;;;;;;;;;5043846;28;20041;-60
2021/12/18 07:55:41;;;;;;;98.68;29.98;;;;;;;;;;5035472;28;20040;-60
2021/12/18 07:58:06;;;;;;;99.32;30.50;;;;;;;;;;5033728;28;20041;-60
2021/12/18 08:00:32;;;;;;;107.70;31.13;;;;;;;;;;5038834;28;20022;-60
2021/12/18 08:02:57;;;;;;;105.85;31.80;;;;;;;;;;5036634;28;20052;-60
2021/12/18 08:05:23;;;;;;;104.25;30.00;;;;;;;;;;5036773;28;20495;-60
2021/12/18 08:07:49;;;;;;;99.47;28.85;;;;;;;;;;5037732;28;20025;-60
2021/12/18 08:10:15;;;;;;;107.32;29.55;;;;;;;;;;5034712;28;20466;-60
2021/12/18 08:12:41;;;;;;;98.50;29.83;;;;;;;;;;5032851;28;20064;-60
2021/12/18 08:15:07;;;;;;;102.75;29.38;;;;;;;;;;5034168;28;20159;-60
2021/12/18 08:17:33;;;;;;;99.78;31.13;;;;;;;;;;5032295;28;20041;-60
2021/12/18 08:19:59;;;;;;;96.72;29.17;;;;;;;;;;5030838;28;20029;-60
2021/12/18 08:22:24;;;;;;;101.45;28.88;;;;;;;;;;5035194;28;20568;-60
2021/12/18 08:24:50;;;;;;;98.57;30.13;;;;;;;;;;5036567;28;20037;-60
2021/12/18 08:27:15;;;;;;;108.93;29.20;;;;;;;;;;5032489;28;20056;-60
2021/12/18 08:29:41;;;;;;;98.82;30.92;;;;;;;;;;5037565;28;20108;-60
2021/12/18 08:32:07;;;;;;;119.78;31.50;;;;;;;;;;5034402;28;20025;-60
2021/12/18 08:34:33;;;;;;;108.22;30.70;;;;;;;;;;5038887;28;20040;-60
2021/12/18 08:36:58;;;;;;;99.22;30.27;;;;;;;;;;5037432;28;20030;-60
2021/12/18 08:39:24;;;;;;;108.45;32.22;;;;;;;;;;5035354;28;20078;-60
2021/12/18 08:41:49;;;;;;;99.70;29.17;;;;;;;;;;5032977;28;20038;-60
2021/12/18 08:44:15;;;;;;;91.15;29.17;;;;;;;;;;5032589;28;20057;-60
2021/12/18 08:46:40;;;;;;;108.65;30.17;;;;;;;;;;5035152;28;20099;-60
2021/12/18 08:49:06;;;;;;;91.43;29.02;;;;;;;;;;5034290;28;20501;-60
2021/12/18 08:51:32;;;;;;;104.47;31.50;;;;;;;;;;5042729;28;20021;-60
2021/12/18 08:53:58;;;;;;;104.15;29.85;;;;;;;;;;5036068;28;20043;-60
2021/12/18 08:56:24;;;;;;;88.28;28.45;;;;;;;;;;5027027;28;20447;-60
2021/12/18 08:58:51;;;;;;;86.90;28.48;;;;;;;;;;5038921;28;20749;-60
2021/12/18 09:01:18;;;;;;;103.60;29.58;;;;;;;;;;5033459;28;20029;-60
2021/12/18 09:03:43;;;;;;;99.28;29.33;;;;;;;;;;5033595;28;20089;-60
2021/12/18 09:06:09;;;;;;;91.80;28.58;;;;;;;;;;5033982;28;20068;-60
2021/12/18 09:08:35;;;;;;;97.03;28.08;;;;;;;;;;5031160;28;20396;-60
2021/12/18 09:11:00;;;;;;;88.78;27.58;;;;;;;;;;5034116;28;20037;-60
2021/12/18 09:13:26;;;;;;;83.03;27.08;;;;;;;;;;5030834;28;21199;-60
2021/12/18 09:15:51;;;;;;;92.93;27.60;;;;;;;;;;5029774;28;20029;-60
2021/12/18 09:18:17;;;;;;;97.15;29.13;;;;;;;;;;5038018;28;20044;-60
2021/12/18 09:20:44;;;;;;;92.72;27.25;;;;;;;;;;5030251;28;20480;-60
2021/12/18 09:23:12;;;;;;;94.57;27.73;;;;;;;;;;5030891;28;20064;-60
2021/12/18 09:25:38;;;;;;;88.88;28.00;;;;;;;;;;5033487;28;20229;-60
2021/12/18 09:28:04;;;;;;;97.35;28.95;;;;;;;;;;5034851;28;20043;-60
2021/12/18 09:30:30;;;;;;;89.32;27.50;;;;;;;;;;5028673;28;20033;-60
2021/12/18 09:32:55;;;;;;;88.15;26.90;;;;;;;;;;5028565;28;20048;-60
2021/12/18 09:35:21;;;;;;;98.15;27.73;;;;;;;;;;5038154;28;20635;-60
2021/12/18 09:37:47;;;;;;;87.78;25.90;;;;;;;;;;5033470;28;20032;-60
2021/12/18 09:40:14;;;;;;;89.85;26.75;;;;;;;;;;5028951;28;20112;-60
2021/12/18 09:42:40;;;;;;;83.53;27.20;;;;;;;;;;5035293;28;20045;-60
2021/12/18 09:45:07;;;;;;;83.43;27.00;;;;;;;;;;5032721;28;20033;-60
2021/12/18 09:47:32;;;;;;;97.28;26.35;;;;;;;;;;5036083;28;20482;-60
2021/12/18 09:49:59;;;;;;;90.75;25.83;;;;;;;;;;5037496;28;20021;-60
2021/12/18 09:52:25;;;;;;;89.82;26.80;;;;;;;;;;5019745;28;20507;-60
2021/12/18 09:54:59;;;;;;;100.45;27.05;;;;;;;;;;5030097;28;20037;-60
2021/12/18 09:57:25;;;;;;;89.50;28.80;;;;;;;;;;5034545;28;20086;-60
2021/12/18 09:59:51;;;;;;;100.97;31.38;;;;;;;;;;5032528;28;20252;-60
2021/12/18 10:02:17;;;;;;;99.43;31.92;;;;;;;;;;5031671;28;20531;-60
2021/12/18 10:04:43;;;;;;;96.78;30.83;;;;;;;;;;5032992;28;20033;-60
2021/12/18 10:07:17;;;;;;;98.90;29.38;;;;;;;;;;5036294;28;20053;-60
2021/12/18 10:09:43;;;;;;;100.78;28.05;;;;;;;;;;5035435;28;20088;-60
2021/12/18 10:12:19;;;;;;;95.90;28.88;;;;;;;;;;5030356;28;20044;-60
2021/12/18 10:14:57;;;;;;;101.18;27.77;;;;;;;;;;5029035;28;20087;-60
2021/12/18 10:17:27;;;;;;;91.50;28.38;;;;;;;;;;5030948;28;20021;-60
2021/12/18 10:20:10;;;;;;;98.47;30.50;;;;;;;;;;5030016;28;20087;-60
2021/12/18 10:22:46;;;;;;;111.10;34.80;;;;;;;;;;5037373;28;20043;-60
2021/12/18 10:25:15;;;;;;;107.60;33.53;;;;;;;;;;5032911;28;20028;-60
2021/12/18 10:27:42;;;;;;;116.20;31.73;;;;;;;;;;5036860;28;20030;-60
2021/12/18 10:30:20;;;;;;;92.60;31.48;;;;;;;;;;5028271;28;20018;-60
2021/12/18 10:33:08;;;;;;;105.50;32.35;;;;;;;;;;5032499;28;20115;-60
2021/12/18 10:35:47;;;;;;;109.30;30.92;;;;;;;;;;5028356;28;20103;-60
2021/12/18 10:38:34;;;;;;;110.65;31.92;;;;;;;;;;5029146;28;20136;-60
2021/12/18 10:41:00;;;;;;;99.13;31.27;;;;;;;;;;5034275;28;20040;-60
2021/12/18 10:43:26;;;;;;;96.93;29.40;;;;;;;;;;5034432;28;20028;-60
2021/12/18 10:45:51;;;;;;;96.88;30.27;;;;;;;;;;5022761;28;20279;-60
2021/12/18 10:48:17;;;;;;;90.97;27.20;;;;;;;;;;5033711;28;20041;-60
2021/12/18 10:50:53;;;;;;;88.20;28.38;;;;;;;;;;5038106;28;20029;-61
2021/12/18 10:53:22;;;;;;;78.43;27.02;;;;;;;;;;5034085;28;20515;-60
2021/12/18 10:55:54;;;;;;;86.50;26.40;;;;;;;;;;5032813;28;20036;-60
2021/12/18 10:58:40;;;;;;;92.05;26.27;;;;;;;;;;5034657;28;20021;-60
2021/12/18 11:01:12;;;;;;;79.07;25.05;;;;;;;;;;5031982;28;21103;-60
2021/12/18 11:03:38;;;;;;;90.00;28.00;;;;;;;;;;5036491;28;20052;-60
2021/12/18 11:06:22;;;;;;;93.10;26.08;;;;;;;;;;5039409;28;20054;-60
2021/12/18 11:09:07;;;;;;;93.60;25.70;;;;;;;;;;5035912;28;20075;-60
2021/12/18 11:14:08;;;;;;;78.40;27.55;;;;;;;;;;5036828;28;20557;-60
2021/12/18 11:16:36;;;;;;;80.60;25.42;;;;;;;;;;5037515;28;20037;-60
2021/12/18 11:19:13;;;;;;;76.05;26.27;;;;;;;;;;5036531;28;20047;-60
2021/12/18 11:21:44;;;;;;;67.03;24.80;;;;;;;;;;5042673;28;20082;-60
2021/12/18 11:24:10;;;;;;;62.50;21.63;;;;;;;;;;5038174;28;20528;-60
2021/12/18 11:27:00;;;;;;;55.33;22.08;;;;;;;;;;5037821;28;20507;-60
2021/12/18 11:29:34;;;;;;;62.20;22.10;;;;;;;;;;5037454;28;20112;-60
2021/12/18 11:32:01;;;;;;;66.43;22.00;;;;;;;;;;5033460;28;20032;-60
2021/12/18 11:34:27;;;;;;;62.63;21.48;;;;;;;;;;5038363;28;20041;-60
2021/12/18 11:36:54;;;;;;;65.00;22.92;;;;;;;;;;5038111;28;20036;-60
2021/12/18 11:39:23;;;;;;;58.17;21.33;;;;;;;;;;5033743;28;20658;-60
2021/12/18 11:41:52;;;;;;;47.72;19.08;;;;;;;;;;5034533;28;20029;-60
2021/12/18 11:44:24;;;;;;;50.38;18.67;;;;;;;;;;5034816;28;20496;-60
2021/12/18 11:46:50;;;;;;;60.70;20.05;;;;;;;;;;5036862;28;20029;-60
2021/12/18 11:49:16;;;;;;;49.15;18.05;;;;;;;;;;5031917;28;20107;-60
2021/12/18 11:51:58;;;;;;;42.35;16.77;;;;;;;;;;5037380;28;20053;-60
2021/12/18 11:55:01;;;;;;;46.13;18.27;;;;;;;;;;5039954;28;20087;-60
2021/12/18 11:57:51;;;;;;;40.35;16.27;;;;;;;;;;5035482;28;20454;-61
2021/12/18 12:00:21;;;;;;;42.47;15.73;;;;;;;;;;5030086;28;20146;-60
2021/12/18 12:02:55;;;;;;;53.55;17.48;;;;;;;;;;5039362;28;20068;-60
2021/12/18 12:05:45;;;;;;;39.15;15.52;;;;;;;;;;5039437;28;20041;-60
2021/12/18 12:08:42;;;;;;;38.15;16.05;;;;;;;;;;5033578;28;20397;-60
2021/12/18 12:11:15;;;;;;;43.00;16.80;;;;;;;;;;5037731;28;20052;-61
2021/12/18 12:14:13;;;;;;;39.88;15.48;;;;;;;;;;5036635;28;20065;-60
2021/12/18 12:16:47;;;;;;;46.63;16.70;;;;;;;;;;5031312;28;20068;-60
2021/12/18 12:19:35;;;;;;;41.40;14.73;;;;;;;;;;5030235;28;20107;-60
2021/12/18 12:22:03;;;;;;;39.95;16.10;;;;;;;;;;5034021;28;20409;-60
2021/12/18 12:24:59;;;;;;;30.50;14.20;;;;;;;;;;5028816;28;20057;-60
2021/12/18 12:27:39;;;;;;;34.47;13.82;;;;;;;;;;5029431;28;20041;-60
2021/12/18 12:30:09;;;;;;;31.58;13.57;;;;;;;;;;5034514;28;20028;-60
2021/12/18 12:32:35;;;;;;;31.35;13.52;;;;;;;;;;5033369;28;20488;-60
2021/12/18 12:35:11;;;;;;;31.25;13.70;;;;;;;;;;5029948;28;20064;-60
2021/12/18 12:37:39;;;;;;;33.33;14.40;;;;;;;;;;5035860;28;20032;-60
2021/12/18 12:40:08;;;;;;;32.25;13.43;;;;;;;;;;5030597;28;20396;-60
2021/12/18 12:42:34;;;;;;;32.38;13.55;;;;;;;;;;5034011;28;20634;-60
2021/12/18 12:45:18;;;;;;;35.70;14.15;;;;;;;;;;5037809;28;20063;-61
2021/12/18 12:47:54;;;;;;;31.55;13.85;;;;;;;;;;5034416;28;20060;-61
2021/12/18 12:50:19;;;;;;;27.50;13.70;;;;;;;;;;5031351;28;20606;-60
2021/12/18 12:52:54;;;;;;;30.02;12.75;;;;;;;;;;5035362;28;20039;-61
2021/12/18 12:55:22;;;;;;;29.13;12.98;;;;;;;;;;5033567;28;20032;-61
2021/12/18 12:57:55;;;;;;;35.72;13.10;;;;;;;;;;5032175;28;20032;-61
2021/12/18 13:00:23;;;;;;;21.63;10.70;;;;;;;;;;5034953;28;20187;-61
2021/12/18 13:03:05;;;;;;;30.88;10.48;;;;;;;;;;5030403;28;20054;-60
2021/12/18 13:05:31;;;;;;;23.15;10.18;;;;;;;;;;5029631;28;20040;-61
2021/12/18 13:07:59;;;;;;;27.77;11.18;;;;;;;;;;5025262;28;20037;-60
2021/12/18 13:10:31;;;;;;;24.10;10.60;;;;;;;;;;5032983;28;20035;-60
2021/12/18 13:13:08;;;;;;;21.02;10.00;;;;;;;;;;5034331;28;20039;-60
2021/12/18 13:15:54;;;;;;;21.52;10.13;;;;;;;;;;5031211;28;20037;-60
2021/12/18 13:18:22;;;;;;;22.00;10.93;;;;;;;;;;5030157;28;20028;-60
2021/12/18 13:21:07;;;;;;;22.35;9.63;;;;;;;;;;5034856;28;20026;-60
2021/12/18 13:23:39;;;;;;;17.52;8.90;;;;;;;;;;5034849;28;20819;-60
2021/12/18 13:26:10;;;;;;;20.17;8.65;;;;;;;;;;5030041;28;20120;-60
2021/12/18 13:28:46;;;;;;;16.38;8.20;;;;;;;;;;5034600;28;20029;-60
2021/12/18 13:31:11;;;;;;;21.02;8.15;;;;;;;;;;5031250;28;20029;-60
2021/12/18 13:33:37;;;;;;;16.38;8.30;;;;;;;;;;5034051;28;20021;-60
2021/12/18 13:36:03;;;;;;;19.02;9.07;;;;;;;;;;5035494;28;20057;-60
2021/12/18 13:38:44;;;;;;;25.83;8.48;;;;;;;;;;5031998;28;20369;-60
2021/12/18 13:41:13;;;;;;;20.35;8.70;;;;;;;;;;5029360;28;20044;-60
2021/12/18 13:43:39;;;;;;;19.55;8.02;;;;;;;;;;5027013;28;20041;-60
2021/12/18 13:46:10;;;;;;;18.85;9.23;;;;;;;;;;5033552;28;20033;-60
2021/12/18 13:48:44;;;;;;;16.90;9.20;;;;;;;;;;5027544;28;20025;-61
2021/12/18 13:51:14;;;;;;;16.20;8.85;;;;;;;;;;5036095;28;20032;-60
2021/12/18 13:53:58;;;;;;;20.48;8.07;;;;;;;;;;5030545;28;20390;-60
2021/12/18 13:56:45;;;;;;;20.45;7.22;;;;;;;;;;5032372;28;20447;-60
2021/12/18 13:59:19;;;;;;;13.00;6.53;;;;;;;;;;5026748;28;20045;-60
2021/12/18 14:01:48;;;;;;;24.60;8.98;;;;;;;;;;5029580;28;20036;-60
2021/12/18 14:04:23;;;;;;;16.45;6.53;;;;;;;;;;5032377;28;20084;-60
2021/12/18 14:06:49;;;;;;;19.73;7.47;;;;;;;;;;5036896;28;20064;-60
2021/12/18 14:09:23;;;;;;;15.98;6.45;;;;;;;;;;5029874;28;20482;-60
2021/12/18 14:11:56;;;;;;;18.80;7.80;;;;;;;;;;5030096;28;20024;-60
2021/12/18 14:14:41;;;;;;;16.35;7.57;;;;;;;;;;5031692;28;20124;-60
2021/12/18 14:17:28;;;;;;;14.98;7.22;;;;;;;;;;5034937;28;20547;-60
2021/12/18 14:20:04;;;;;;;16.73;8.10;;;;;;;;;;5032587;28;20025;-60
2021/12/18 14:22:31;;;;;;;16.73;7.72;;;;;;;;;;5029532;28;20029;-60
2021/12/18 14:25:14;;;;;;;15.50;7.05;;;;;;;;;;5032757;28;20044;-60
2021/12/18 14:27:45;;;;;;;28.00;7.75;;;;;;;;;;5035037;28;20036;-60
2021/12/18 14:30:20;;;;;;;19.27;8.27;;;;;;;;;;5040078;28;20056;-60
2021/12/18 14:32:46;;;;;;;19.67;7.13;;;;;;;;;;5034432;28;20037;-60
2021/12/18 14:35:14;;;;;;;17.55;7.65;;;;;;;;;;5035905;28;20496;-60
2021/12/18 14:37:57;;;;;;;20.85;7.63;;;;;;;;;;5036194;28;20040;-60
2021/12/18 14:40:25;;;;;;;23.48;8.13;;;;;;;;;;5038369;28;20033;-60
2021/12/18 14:42:56;;;;;;;21.17;7.32;;;;;;;;;;5034799;28;20497;-60
2021/12/18 14:45:28;;;;;;;16.80;7.35;;;;;;;;;;5033348;28;20099;-60
2021/12/18 14:47:56;;;;;;;16.30;6.80;;;;;;;;;;5033908;28;23088;-60
2021/12/18 14:50:23;;;;;;;20.60;7.68;;;;;;;;;;5031430;28;20033;-60
2021/12/18 14:53:10;;;;;;;15.98;6.97;;;;;;;;;;5031686;28;20100;-60
2021/12/18 14:55:44;;;;;;;40.65;7.97;;;;;;;;;;5039094;28;20040;-60
2021/12/18 14:58:20;;;;;;;19.33;6.68;;;;;;;;;;5039466;28;20058;-60
2021/12/18 15:01:02;;;;;;;19.08;6.78;;;;;;;;;;5034084;28;20137;-60
2021/12/18 15:03:48;;;;;;;21.20;6.45;;;;;;;;;;5041450;28;20420;-60
2021/12/18 15:06:24;;;;;;;14.98;6.65;;;;;;;;;;5040617;28;20074;-60
2021/12/18 15:09:13;;;;;;;13.43;6.38;;;;;;;;;;5029918;28;20534;-60
2021/12/18 15:11:41;;;;;;;18.33;6.43;;;;;;;;;;5039494;28;20067;-60
2021/12/18 15:14:24;;;;;;;16.83;6.28;;;;;;;;;;5039232;28;20036;-60
2021/12/18 15:17:25;;;;;;;16.23;6.28;;;;;;;;;;5034616;28;20047;-60
2021/12/18 15:19:51;;;;;;;15.25;6.35;;;;;;;;;;5033230;28;20037;-60
2021/12/18 15:22:17;;;;;;;14.57;5.78;;;;;;;;;;5038640;28;20041;-60
2021/12/18 15:24:43;;;;;;;12.20;5.85;;;;;;;;;;5035783;28;20040;-60
2021/12/18 15:27:09;;;;;;;19.63;7.07;;;;;;;;;;5035128;28;20056;-60